Hollywood, Alabama
Current Conditions -  °F | °C
As of 1:35 PM on Tuesday 21 Oct 2014 (Local Time) from K4A6 Reporting Station
Clear Clear  
Wind Chill: 72°   Ceiling: Unl
Heat Index: 72°   Visibility: 10mi
Dew Point: 45°   Wind: 3mph
Humidity: 38%   Direction: 330°NNW
Pressure: 30.02"   Gusts: NA
Location:  34.72°N, 85.97°W
Report Text: K4A6 211835Z AUTO 33003KT 10SM CLR 22/07 A3002 RMK AO2
Loading
Personal Weather Stations






























Interactive Weather Map
Tropical Storm Tracking
New forecast layout! Learn more

10-Day Weather Forecast

Advertisements
Track Severe Weather on mobile